Airfield :
LOGIN :

Register | Disclaimer

   EN    FR    IT 

 










Legend :    VFR   Marginal VFR   IFR   Intensive IFR   Very Intensive IFR
Visi :
Ceiling :
>= 8 km
>= 3000ft
5 to 8 km
1000 to 3000 ft
1500m to 5 km
500 to 1000 ft
800 to 1500m
200 to 500 ft
< 800m
< 200 ft
Symbols :   Thunderstorms  Fog  Heavy snow  Heavy precipitations  Wind > 20 kt
SIGMETs :     Misc.  Thunderstorms  Icing  Turbulence  Mountain Waves  Volcanic Ashes






- Airport Elevation : 8 ft
- IATA code : PSD


HEPS - Port Said

CURRENT METAR :
  • 241900Z 34010KT 9999 SCT025 14/10 Q1015 NOSIG

EXPIRED METARs :
  • 241800Z 33007KT 9999 FEW020 SCT025 15/10 Q1015 NOSIG
  • 241700Z 34008KT 9999 FEW020 SCT025 15/11 Q1015 NOSIG

TAF TAF HEPS
Valid from the 24 at 18:00 until the 26 at 00:00 UTC


241700Z 2418/2524 34009KT 6000 SCT025 SCT070
TEMPO 2418/2506 5000 RA BKN025 BKN070
PROB30
TEMPO 2418/2424 TSSHRA SCT025CB



MET'MAP, your aeronautical weather chart ! - Copyright ORBIFLY December 2007 - Disclaimer

ORBIFLY MET'MAP TEAM :

Programming & Development : Alexandra Zaïnal
Concept & original design : Baudouin d'Aumeries
Assistance for programming : Marc-Olivier Méhu
Technical & hardware support : Manuel Goepfert

Contact : metmap@orbifly.com




SOURCES & CREDITS :

   NOAA